Main page
METAR-TAF:

METAR-TAF

Airports :

Marion County Regional Airport

Flippin, Arkansas, United States

latitude: 36-18N, longitude: 092-28W, elevation: 1148 ft

Current weather observation

The report was made 54 minutes ago, at 02:56 UTC
Calm wind
Temperature 54°F
Humidity 54%
Pressure 30.05 in. Hg
Visibility: 10 miles
Clear sky

METAR: KFLP 230256Z AUTO 00000KT 10SM CLR 12/03 A3005 RMK AO2 SLP174 T01220028 53005 $

Time: 22:50 (03:50 UTC)


TAF: missing

Weather observations and forecasts of more than 4000 airports (METAR and TAF reports).

The available stations are represented by yellow and red dots on the map.

Hover mouse over dot to see the name of the station.

Then click to see weather observations and forecasts.

To change the map : click on the green buttons with a black cross to zoom in, on the green button with a dash to zoom out, or on the green arrows for adjacent maps.


METAR-TAF: